createdAt,value
2022-11-17T00:02:08.861Z,5.80
2022-11-17T00:04:37.497Z,5.05
2022-11-17T00:07:06.172Z,4.70
2022-11-17T00:09:36.177Z,5.78
2022-11-17T00:12:23.212Z,5.55
2022-11-17T00:14:51.921Z,4.68
2022-11-17T00:17:20.532Z,5.07
2022-11-17T00:20:06.608Z,6.13
2022-11-17T00:22:35.245Z,4.53
2022-11-17T00:25:05.416Z,6.88
2022-11-17T00:27:34.068Z,7.93
2022-11-17T00:30:02.614Z,5.00
2022-11-17T00:32:48.734Z,5.13
2022-11-17T00:35:17.331Z,4.82
2022-11-17T00:37:59.740Z,4.97
2022-11-17T00:40:29.820Z,4.80
2022-11-17T00:42:58.508Z,6.55
2022-11-17T00:45:27.131Z,6.10
2022-11-17T00:47:55.753Z,4.93
2022-11-17T00:50:24.484Z,4.18
2022-11-17T00:52:53.054Z,4.18
2022-11-17T00:55:21.674Z,4.65
2022-11-17T00:57:51.758Z,5.93
2022-11-17T01:00:21.768Z,3.75
2022-11-17T01:02:50.368Z,4.95
2022-11-17T01:05:18.943Z,4.40
2022-11-17T01:07:48.135Z,4.57
2022-11-17T01:10:16.720Z,3.70
2022-11-17T01:12:45.768Z,4.45
2022-11-17T01:15:15.906Z,4.28
2022-11-17T01:17:44.568Z,3.58
2022-11-17T01:20:13.337Z,4.43
2022-11-17T01:22:41.975Z,3.75
2022-11-17T01:25:10.831Z,3.55
2022-11-17T01:27:39.496Z,3.90
2022-11-17T01:30:08.839Z,4.40
2022-11-17T01:32:38.790Z,4.70
2022-11-17T01:35:08.040Z,3.88
2022-11-17T01:37:36.696Z,3.60
2022-11-17T01:40:05.762Z,4.35
2022-11-17T01:42:34.377Z,3.22
2022-11-17T01:45:04.374Z,3.65
2022-11-17T01:47:39.697Z,3.53
2022-11-17T01:50:11.864Z,2.90
2022-11-17T01:52:41.133Z,4.53
2022-11-17T01:55:10.622Z,3.45
2022-11-17T01:57:41.187Z,3.35
2022-11-17T02:00:11.377Z,3.97
2022-11-17T02:02:41.249Z,3.30
2022-11-17T02:05:19.485Z,2.30
2022-11-17T02:07:49.259Z,2.85
2022-11-17T02:10:18.189Z,3.20
2022-11-17T02:12:47.139Z,2.97
2022-11-17T02:15:15.751Z,3.40
2022-11-17T02:17:44.922Z,2.60
2022-11-17T02:20:16.504Z,2.63
2022-11-17T02:25:32.209Z,2.38
2022-11-17T02:28:04.975Z,2.90
2022-11-17T02:30:36.546Z,5.25
2022-11-17T02:35:38.557Z,2.35
2022-11-17T02:38:10.582Z,2.92
2022-11-17T02:40:41.635Z,3.17
2022-11-17T02:43:30.714Z,2.10
2022-11-17T02:46:02.018Z,3.55
2022-11-17T02:48:33.648Z,2.80
2022-11-17T02:53:31.448Z,2.53
2022-11-17T02:56:01.967Z,2.65
2022-11-17T02:58:32.004Z,3.47
2022-11-17T03:01:06.619Z,3.08
2022-11-17T03:03:41.019Z,3.15
2022-11-17T03:06:17.234Z,2.15
2022-11-17T03:08:49.543Z,3.55
2022-11-17T03:11:18.402Z,3.17
2022-11-17T03:13:51.375Z,3.33
2022-11-17T03:16:27.349Z,3.45
2022-11-17T03:19:01.144Z,2.42
2022-11-17T03:21:30.938Z,3.58
2022-11-17T03:24:04.350Z,2.67
2022-11-17T03:26:34.333Z,2.63
2022-11-17T03:29:07.271Z,2.33
2022-11-17T03:31:37.026Z,2.20
2022-11-17T03:34:07.662Z,2.70
2022-11-17T03:36:37.700Z,2.72
2022-11-17T03:39:08.477Z,3.13
2022-11-17T03:41:40.071Z,3.53
2022-11-17T03:46:38.898Z,1.70
2022-11-17T03:49:09.762Z,2.28
2022-11-17T03:51:38.617Z,2.38
2022-11-17T03:54:07.466Z,2.28
2022-11-17T03:56:39.384Z,1.75
2022-11-17T03:59:12.125Z,2.58
2022-11-17T04:01:42.106Z,2.50
2022-11-17T04:04:14.932Z,1.88
2022-11-17T04:06:43.542Z,1.88
2022-11-17T04:09:12.146Z,2.20
2022-11-17T04:11:58.253Z,1.50
2022-11-17T04:14:44.482Z,1.10
2022-11-17T04:17:14.637Z,1.58
2022-11-17T04:19:43.261Z,2.00
2022-11-17T04:22:11.825Z,2.20
2022-11-17T04:24:40.434Z,2.40
2022-11-17T04:27:37.990Z,1.40
2022-11-17T04:30:07.217Z,1.90
2022-11-17T04:32:37.184Z,1.83
2022-11-17T04:35:06.180Z,1.27
2022-11-17T04:37:34.878Z,1.85
2022-11-17T04:40:03.774Z,2.53
2022-11-17T04:42:31.445Z,1.30
2022-11-17T04:45:00.023Z,1.20
2022-11-17T04:47:28.587Z,2.90
2022-11-17T04:49:58.896Z,2.00
2022-11-17T04:52:29.960Z,2.13
2022-11-17T04:54:58.736Z,0.68
2022-11-17T04:57:27.386Z,2.15
2022-11-17T04:59:55.971Z,1.40
2022-11-17T05:02:24.728Z,1.05
2022-11-17T05:04:59.158Z,1.58
2022-11-17T05:07:29.235Z,0.70
2022-11-17T05:09:57.907Z,2.63
2022-11-17T05:12:44.052Z,1.65
2022-11-17T05:15:32.630Z,1.38
2022-11-17T05:18:00.282Z,1.25
2022-11-17T05:20:28.871Z,1.10
2022-11-17T05:23:31.025Z,2.35
2022-11-17T05:25:59.623Z,1.60
2022-11-17T05:28:28.452Z,1.23
2022-11-17T05:30:57.069Z,0.77
2022-11-17T05:33:25.676Z,1.48
2022-11-17T05:35:54.308Z,1.48
2022-11-17T05:38:24.211Z,1.25
2022-11-17T05:40:52.816Z,1.50
2022-11-17T05:43:21.383Z,1.52
2022-11-17T05:45:50.133Z,1.20
2022-11-17T05:48:18.803Z,1.42
2022-11-17T05:50:47.826Z,0.90
2022-11-17T05:53:16.482Z,1.63
2022-11-17T05:55:46.525Z,2.20
2022-11-17T05:58:18.434Z,2.20
2022-11-17T06:00:47.165Z,3.42
2022-11-17T06:03:17.348Z,2.38
2022-11-17T06:05:45.968Z,4.00
2022-11-17T06:08:14.578Z,3.33
2022-11-17T06:10:43.196Z,3.42
2022-11-17T06:13:13.173Z,2.72
2022-11-17T06:15:41.892Z,2.65
2022-11-17T06:18:12.269Z,4.03
2022-11-17T06:20:42.956Z,7.85
2022-11-17T06:23:12.825Z,4.30
2022-11-17T06:25:41.664Z,5.53
2022-11-17T06:28:19.261Z,3.80
2022-11-17T06:30:49.894Z,4.30
2022-11-17T06:33:19.435Z,3.67
2022-11-17T06:35:48.458Z,3.83
2022-11-17T06:38:17.113Z,5.63
2022-11-17T06:40:45.672Z,3.28
2022-11-17T06:43:14.280Z,2.97
2022-11-17T06:45:44.417Z,3.28
2022-11-17T06:48:15.482Z,2.83
2022-11-17T06:50:44.341Z,3.83
2022-11-17T06:53:13.820Z,4.00
2022-11-17T06:55:42.419Z,3.78
2022-11-17T06:58:12.864Z,10.32
2022-11-17T07:00:41.478Z,7.45
2022-11-17T07:03:11.228Z,7.72
2022-11-17T07:05:41.514Z,6.53
2022-11-17T07:08:10.402Z,6.35
2022-11-17T07:10:39.023Z,4.90
2022-11-17T07:13:08.984Z,6.07
2022-11-17T07:15:37.519Z,6.65
2022-11-17T07:18:06.298Z,6.03
2022-11-17T07:20:34.882Z,4.53
2022-11-17T07:23:04.950Z,2.90
2022-11-17T07:25:33.570Z,4.57
2022-11-17T07:28:02.208Z,3.58
2022-11-17T07:30:30.940Z,2.25
2022-11-17T07:33:00.366Z,6.00
2022-11-17T07:35:29.357Z,2.67
2022-11-17T07:38:01.609Z,2.50
2022-11-17T07:40:31.970Z,3.20
2022-11-17T07:43:01.237Z,3.03
2022-11-17T07:45:32.450Z,3.13
2022-11-17T07:48:01.687Z,2.65
2022-11-17T07:50:30.576Z,3.65
2022-11-17T07:52:59.378Z,4.30
2022-11-17T07:55:28.019Z,3.75
2022-11-17T07:57:58.798Z,2.58
2022-11-17T08:00:28.310Z,2.87
2022-11-17T08:02:57.023Z,3.30
2022-11-17T08:05:26.069Z,2.60
2022-11-17T08:07:56.688Z,2.67
2022-11-17T08:10:27.108Z,3.88
2022-11-17T08:12:56.177Z,3.15
2022-11-17T08:15:26.207Z,2.05
2022-11-17T08:17:55.409Z,2.65
2022-11-17T08:20:24.714Z,3.67
2022-11-17T08:22:54.349Z,4.80
2022-11-17T08:25:23.470Z,5.18
2022-11-17T08:27:52.133Z,5.45
2022-11-17T08:30:21.477Z,5.13
2022-11-17T08:32:52.166Z,6.25
2022-11-17T08:35:21.515Z,7.13
2022-11-17T08:37:50.146Z,5.63
2022-11-17T08:40:19.410Z,4.57
2022-11-17T08:42:48.177Z,7.78
2022-11-17T08:45:16.848Z,4.32
2022-11-17T08:47:45.415Z,3.17
2022-11-17T08:50:15.472Z,2.90
2022-11-17T08:52:44.135Z,3.70
2022-11-17T08:55:12.804Z,3.38
2022-11-17T08:57:41.565Z,4.68
2022-11-17T09:00:10.890Z,3.92
2022-11-17T09:02:39.656Z,3.85
2022-11-17T09:05:08.889Z,3.35
2022-11-17T09:07:38.900Z,5.40
2022-11-17T09:10:11.196Z,3.95
2022-11-17T09:12:39.945Z,3.53
2022-11-17T09:15:09.235Z,3.28
2022-11-17T09:17:37.829Z,3.72
2022-11-17T09:20:06.928Z,3.28
2022-11-17T09:22:35.653Z,2.92
2022-11-17T09:25:11.866Z,2.58
2022-11-17T09:27:41.934Z,2.53
2022-11-17T09:30:11.183Z,2.75
2022-11-17T09:32:39.826Z,3.65
2022-11-17T09:35:09.430Z,4.45
2022-11-17T09:37:38.517Z,3.53
2022-11-17T09:40:09.579Z,2.00
2022-11-17T09:42:40.630Z,3.17
2022-11-17T09:45:11.158Z,3.22
2022-11-17T09:47:43.236Z,2.22
2022-11-17T09:50:18.255Z,2.53
2022-11-17T09:52:51.622Z,4.43
2022-11-17T09:55:31.167Z,3.33
2022-11-17T09:58:09.313Z,3.17
2022-11-17T10:00:38.776Z,3.13
2022-11-17T10:03:12.756Z,4.13
2022-11-17T10:05:41.428Z,4.45
2022-11-17T10:08:13.125Z,5.85
2022-11-17T10:13:16.338Z,3.83
2022-11-17T10:15:48.198Z,4.18
2022-11-17T10:18:17.608Z,4.68
2022-11-17T10:20:46.574Z,5.53
2022-11-17T10:23:16.778Z,4.75
2022-11-17T10:25:46.251Z,4.25
2022-11-17T10:28:29.751Z,4.45
2022-11-17T10:31:00.793Z,4.65
2022-11-17T10:33:37.411Z,6.45
2022-11-17T10:36:08.135Z,5.70
2022-11-17T10:38:36.923Z,6.10
2022-11-17T10:41:05.592Z,4.57
2022-11-17T10:43:37.285Z,5.03
2022-11-17T10:46:07.098Z,4.15
2022-11-17T10:48:36.637Z,5.13
2022-11-17T10:51:09.240Z,4.78
2022-11-17T10:53:45.040Z,4.53
2022-11-17T10:56:16.164Z,4.53
2022-11-17T10:59:08.950Z,5.22
2022-11-17T11:01:39.702Z,4.55
2022-11-17T11:04:09.839Z,4.40
2022-11-17T11:06:38.563Z,4.78
2022-11-17T11:09:11.770Z,5.20
2022-11-17T11:11:43.720Z,4.40
2022-11-17T11:14:21.240Z,4.50
2022-11-17T11:16:51.894Z,4.68
2022-11-17T11:19:21.982Z,5.25
2022-11-17T11:22:05.006Z,4.72
2022-11-17T11:24:36.796Z,5.50
2022-11-17T11:27:09.565Z,4.53
2022-11-17T11:29:47.311Z,5.65
2022-11-17T11:32:23.333Z,4.30
2022-11-17T11:35:03.907Z,3.80
2022-11-17T11:37:37.080Z,4.40
2022-11-17T11:40:11.921Z,5.78
2022-11-17T11:42:47.896Z,4.80
2022-11-17T11:45:31.592Z,5.15
2022-11-17T11:48:08.052Z,5.22
2022-11-17T11:50:41.765Z,4.63
2022-11-17T11:53:16.951Z,4.53
2022-11-17T11:55:46.819Z,4.25
2022-11-17T11:58:17.548Z,4.15
2022-11-17T12:00:46.574Z,4.07
2022-11-17T12:03:21.689Z,3.95
2022-11-17T12:05:57.813Z,4.53
2022-11-17T12:08:31.102Z,4.85
2022-11-17T12:11:22.535Z,3.65
2022-11-17T12:13:54.363Z,3.58
2022-11-17T12:16:30.470Z,2.70
2022-11-17T12:19:00.536Z,3.35
2022-11-17T12:21:29.573Z,4.50
2022-11-17T12:24:04.835Z,3.95
2022-11-17T12:26:34.897Z,2.22
2022-11-17T12:29:22.148Z,3.70
2022-11-17T12:31:51.256Z,2.05
2022-11-17T12:34:24.280Z,1.58
2022-11-17T12:37:23.299Z,2.03
2022-11-17T12:40:12.721Z,2.65
2022-11-17T12:43:01.343Z,1.77
2022-11-17T12:45:30.203Z,2.05
2022-11-17T12:48:18.809Z,1.42
2022-11-17T12:50:52.061Z,6.25
2022-11-17T12:53:38.292Z,5.20
2022-11-17T12:56:28.151Z,3.30
2022-11-17T12:59:02.217Z,3.08
2022-11-17T13:01:36.063Z,3.55
2022-11-17T13:04:09.616Z,3.80
2022-11-17T13:06:39.760Z,3.28
2022-11-17T13:09:09.249Z,2.72
2022-11-17T13:11:37.969Z,3.08
2022-11-17T13:14:11.240Z,4.95
2022-11-17T13:16:45.508Z,5.88
2022-11-17T13:19:39.369Z,2.70
2022-11-17T13:22:15.869Z,6.50
2022-11-17T13:24:45.547Z,5.57
2022-11-17T13:27:22.248Z,8.55
2022-11-17T13:29:50.965Z,3.53
2022-11-17T13:32:21.380Z,4.30
2022-11-17T13:34:51.582Z,5.05
2022-11-17T13:37:23.069Z,2.70
2022-11-17T13:42:21.149Z,6.70
2022-11-17T13:44:50.264Z,5.53
2022-11-17T13:47:22.697Z,3.90
2022-11-17T13:49:52.052Z,5.43
2022-11-17T13:52:38.000Z,7.10
2022-11-17T13:55:11.680Z,2.50
2022-11-17T13:57:40.360Z,2.65
2022-11-17T14:00:18.073Z,4.18
2022-11-17T14:02:53.918Z,7.97
2022-11-17T14:05:26.596Z,6.18
2022-11-17T14:07:57.400Z,3.13
2022-11-17T14:10:31.446Z,2.83
2022-11-17T14:13:24.246Z,4.13
2022-11-17T14:15:54.938Z,3.38
2022-11-17T14:18:28.064Z,4.05
2022-11-17T14:21:14.782Z,3.67
2022-11-17T14:23:45.573Z,5.55
2022-11-17T14:26:21.548Z,3.30
2022-11-17T14:28:50.599Z,5.22
2022-11-17T14:31:19.616Z,4.53
2022-11-17T14:33:50.598Z,2.78
2022-11-17T14:36:20.003Z,3.13
2022-11-17T14:38:50.016Z,3.45
2022-11-17T14:41:19.298Z,3.65
2022-11-17T14:43:48.181Z,6.40
2022-11-17T14:46:19.925Z,4.13
2022-11-17T14:48:48.695Z,3.38
2022-11-17T14:51:17.384Z,3.63
2022-11-17T14:53:46.283Z,4.90
2022-11-17T14:56:17.870Z,4.63
2022-11-17T14:58:47.394Z,4.57
2022-11-17T15:01:18.044Z,3.38
2022-11-17T15:03:47.522Z,2.10
2022-11-17T15:06:19.951Z,3.30
2022-11-17T15:08:49.172Z,3.97
2022-11-17T15:11:19.951Z,4.70
2022-11-17T15:13:48.586Z,4.55
2022-11-17T15:16:17.198Z,6.80
2022-11-17T15:18:49.371Z,3.20
2022-11-17T15:21:18.459Z,4.68
2022-11-17T15:23:47.079Z,4.03
2022-11-17T15:26:16.959Z,5.18
2022-11-17T15:28:47.314Z,4.35
2022-11-17T15:31:16.558Z,5.32
2022-11-17T15:33:45.750Z,4.32
2022-11-17T15:36:15.193Z,5.75
2022-11-17T15:38:43.916Z,7.60
2022-11-17T15:41:13.856Z,7.60
2022-11-17T15:43:43.382Z,9.35
2022-11-17T15:46:15.694Z,7.60
2022-11-17T15:48:44.993Z,8.35
2022-11-17T15:51:14.582Z,8.65
2022-11-17T15:53:43.712Z,10.48
2022-11-17T15:56:13.260Z,12.38
2022-11-17T15:58:42.576Z,8.00
2022-11-17T16:01:12.332Z,8.32
2022-11-17T16:03:42.779Z,9.38
2022-11-17T16:06:11.738Z,8.55
2022-11-17T16:08:40.944Z,7.25
2022-11-17T16:11:09.896Z,8.18
2022-11-17T16:13:38.537Z,8.10
2022-11-17T16:16:07.890Z,8.38
2022-11-17T16:18:38.527Z,9.65
2022-11-17T16:21:10.071Z,8.05
2022-11-17T16:26:07.273Z,8.70
2022-11-17T16:28:35.908Z,7.70
2022-11-17T16:31:13.459Z,8.75
2022-11-17T16:33:42.150Z,9.23
2022-11-17T16:36:12.438Z,8.23
2022-11-17T16:38:49.863Z,6.07
2022-11-17T16:41:30.024Z,6.45
2022-11-17T16:43:58.688Z,9.77
2022-11-17T16:46:28.791Z,6.80
2022-11-17T16:48:57.885Z,7.43
2022-11-17T16:51:27.959Z,7.57
2022-11-17T16:53:57.286Z,6.18
2022-11-17T16:56:26.027Z,5.90
2022-11-17T16:58:55.177Z,4.38
2022-11-17T17:01:24.577Z,11.95
2022-11-17T17:03:57.131Z,6.35
2022-11-17T17:06:26.266Z,8.38
2022-11-17T17:08:56.966Z,6.03
2022-11-17T17:11:25.899Z,7.63
2022-11-17T17:13:56.383Z,7.28
2022-11-17T17:16:25.867Z,6.85
2022-11-17T17:18:56.863Z,6.20
2022-11-17T17:21:25.538Z,8.07
2022-11-17T17:23:54.109Z,7.80
2022-11-17T17:26:25.023Z,7.45
2022-11-17T17:28:55.811Z,7.13
2022-11-17T17:31:25.192Z,8.13
2022-11-17T17:33:54.382Z,8.13
2022-11-17T17:36:24.083Z,6.72
2022-11-17T17:38:55.913Z,8.18
2022-11-17T17:41:27.421Z,10.70
2022-11-17T17:43:58.017Z,40.17
2022-11-17T17:46:26.838Z,82.80
2022-11-17T17:48:56.471Z,160.30
2022-11-17T17:51:26.338Z,242.40
2022-11-17T17:53:58.536Z,341.17
2022-11-17T17:56:30.476Z,203.95
2022-11-17T17:58:59.433Z,165.63
2022-11-17T18:01:28.636Z,134.57
2022-11-17T18:04:01.529Z,123.90
2022-11-17T18:06:30.742Z,135.25
2022-11-17T18:08:59.515Z,157.80
2022-11-17T18:11:29.528Z,134.25
2022-11-17T18:13:58.221Z,101.13
2022-11-17T18:16:27.957Z,209.38
2022-11-17T18:19:00.507Z,792.72
2022-11-17T18:21:29.965Z,191.63
2022-11-17T18:23:59.123Z,756.90
2022-11-17T18:26:30.279Z,122.85
2022-11-17T18:28:59.686Z,96.15
2022-11-17T18:31:29.244Z,63.58
2022-11-17T18:33:58.765Z,58.97
2022-11-17T18:36:27.795Z,54.65
2022-11-17T18:38:58.595Z,343.80
2022-11-17T18:41:30.748Z,358.55
2022-11-17T18:44:00.847Z,243.27
2022-11-17T18:46:30.164Z,326.10
2022-11-17T18:49:00.300Z,257.08
2022-11-17T18:51:30.063Z,143.40
2022-11-17T18:53:59.688Z,154.52
2022-11-17T18:56:29.044Z,95.05
2022-11-17T18:58:57.650Z,71.90
2022-11-17T19:01:29.071Z,60.65
2022-11-17T19:06:26.745Z,271.23
2022-11-17T19:08:55.460Z,49.88
2022-11-17T19:11:24.557Z,52.95
2022-11-17T19:13:53.551Z,41.83
2022-11-17T19:16:23.286Z,38.92
2022-11-17T19:18:54.446Z,167.63
2022-11-17T19:21:25.852Z,84.88
2022-11-17T19:23:55.190Z,124.32
2022-11-17T19:26:25.320Z,107.07
2022-11-17T19:28:56.826Z,168.02
2022-11-17T19:31:25.782Z,134.73
2022-11-17T19:33:56.411Z,119.22
2022-11-17T19:36:26.034Z,120.57
2022-11-17T19:38:55.906Z,93.32
2022-11-17T19:41:25.735Z,73.72
2022-11-17T19:43:55.076Z,56.58
2022-11-17T19:46:24.485Z,73.05
2022-11-17T19:48:53.115Z,150.70
2022-11-17T19:51:23.921Z,177.75
2022-11-17T19:53:53.511Z,186.07
2022-11-17T19:56:22.805Z,180.13
2022-11-17T19:58:51.629Z,154.13
2022-11-17T20:01:21.290Z,142.23
2022-11-17T20:03:50.023Z,117.53
2022-11-17T20:06:20.051Z,106.68
2022-11-17T20:08:50.611Z,85.63
2022-11-17T20:11:20.030Z,74.25
2022-11-17T20:13:48.975Z,69.65
2022-11-17T20:16:18.687Z,69.93
2022-11-17T20:18:50.156Z,120.57
2022-11-17T20:21:18.848Z,145.98
2022-11-17T20:23:47.710Z,145.23
2022-11-17T20:26:19.023Z,127.10
2022-11-17T20:28:48.009Z,111.78
2022-11-17T20:31:19.549Z,85.05
2022-11-17T20:33:48.909Z,92.93
2022-11-17T20:36:18.296Z,74.97
2022-11-17T20:38:47.771Z,67.43
2022-11-17T20:41:17.984Z,58.28
2022-11-17T20:43:49.230Z,49.88
2022-11-17T20:46:17.921Z,41.63
2022-11-17T20:48:46.714Z,31.70
2022-11-17T20:51:16.143Z,27.02
2022-11-17T20:53:45.071Z,21.50
2022-11-17T20:56:14.562Z,15.05
2022-11-17T20:58:44.619Z,12.15
2022-11-17T21:01:14.578Z,13.07
2022-11-17T21:03:43.508Z,11.32
2022-11-17T21:06:12.616Z,11.85
2022-11-17T21:08:43.375Z,10.30
2022-11-17T21:11:33.049Z,12.25
2022-11-17T21:14:03.299Z,9.80
2022-11-17T21:16:31.948Z,10.13
2022-11-17T21:19:00.613Z,9.32
2022-11-17T21:21:30.577Z,8.95
2022-11-17T21:23:59.666Z,8.52
2022-11-17T21:26:29.062Z,10.20
2022-11-17T21:29:03.185Z,7.72
2022-11-17T21:31:36.254Z,9.27
2022-11-17T21:34:06.366Z,7.05
2022-11-17T21:36:36.327Z,10.30
2022-11-17T21:39:08.459Z,8.32
2022-11-17T21:41:38.622Z,9.75
2022-11-17T21:44:07.314Z,9.30
2022-11-17T21:46:37.303Z,7.43
2022-11-17T21:49:06.500Z,6.57
2022-11-17T21:51:40.496Z,6.63
2022-11-17T21:54:10.105Z,6.75
2022-11-17T21:56:38.781Z,7.20
2022-11-17T21:59:08.495Z,6.63
2022-11-17T22:01:39.816Z,9.35
2022-11-17T22:04:08.579Z,7.38
2022-11-17T22:06:37.079Z,5.65
2022-11-17T22:09:05.835Z,6.75
2022-11-17T22:11:38.133Z,6.85
2022-11-17T22:14:08.430Z,6.82
2022-11-17T22:16:39.192Z,6.50
2022-11-17T22:19:08.120Z,7.22
2022-11-17T22:21:37.516Z,7.95
2022-11-17T22:24:06.520Z,7.40
2022-11-17T22:26:38.214Z,6.18
2022-11-17T22:29:07.683Z,5.95
2022-11-17T22:31:36.508Z,5.55
2022-11-17T22:34:06.569Z,5.85
2022-11-17T22:36:35.263Z,6.80
2022-11-17T22:39:03.913Z,6.35
2022-11-17T22:41:32.864Z,6.70
2022-11-17T22:44:01.465Z,4.85
2022-11-17T22:46:30.630Z,5.90
2022-11-17T22:48:59.288Z,4.38
2022-11-17T22:51:46.557Z,4.43
2022-11-17T22:54:15.325Z,4.75
2022-11-17T22:56:44.197Z,5.00
2022-11-17T22:59:12.783Z,3.05
2022-11-17T23:01:41.498Z,2.75
2022-11-17T23:04:10.120Z,3.15
2022-11-17T23:06:40.068Z,2.10
2022-11-17T23:09:08.804Z,4.32
2022-11-17T23:11:38.346Z,4.85
2022-11-17T23:14:08.240Z,2.40
2022-11-17T23:16:37.557Z,3.10
2022-11-17T23:19:06.756Z,2.70
2022-11-17T23:21:35.491Z,2.55
2022-11-17T23:24:05.598Z,2.60
2022-11-17T23:26:34.385Z,3.10
2022-11-17T23:29:03.000Z,3.08
2022-11-17T23:31:31.645Z,3.67
2022-11-17T23:34:00.324Z,6.15
2022-11-17T23:36:29.078Z,3.55
2022-11-17T23:38:58.062Z,3.67
2022-11-17T23:41:28.885Z,3.58
2022-11-17T23:43:57.485Z,4.60
2022-11-17T23:46:27.313Z,2.83
2022-11-17T23:48:57.126Z,3.13
2022-11-17T23:51:26.456Z,3.75
2022-11-17T23:53:55.551Z,3.42
2022-11-17T23:56:24.499Z,2.30
2022-11-17T23:58:54.441Z,3.15
